Time;durP1;ratioP1;P1;durP2;ratioP2;P2;SDS_P1;SDS_P2;PMS_P1;PMS_P2;Temp;Humidity;BMP_temperature;BMP_pressure;BME280_temperature;BME280_humidity;BME280_pressure;Samples;Min_cycle;Max_cycle;Signal;HPM_P1;HPM_P2
2023/07/24 00:00:01;;;;;;;7.97;3.10;;;15.10;99.90;;;;;;5049438;28;20021;-82
2023/07/24 00:02:26;;;;;;;11.80;3.42;;;14.90;99.90;;;;;;5050073;28;20024;-82
2023/07/24 00:04:52;;;;;;;8.18;3.72;;;14.90;99.90;;;;;;5049689;28;20369;-82
2023/07/24 00:07:18;;;;;;;8.90;2.97;;;14.80;99.90;;;;;;5048233;28;20025;-82
2023/07/24 00:09:43;;;;;;;11.30;3.97;;;14.70;99.90;;;;;;5050579;28;20025;-83
2023/07/24 00:12:09;;;;;;;10.43;3.38;;;14.60;99.90;;;;;;5050604;28;20025;-82
2023/07/24 00:14:35;;;;;;;11.05;3.25;;;14.50;99.90;;;;;;5067783;23;20055;-79
2023/07/24 00:17:00;;;;;;;9.30;2.70;;;14.40;99.90;;;;;;5035097;28;20124;-78
2023/07/24 00:19:26;;;;;;;12.15;3.03;;;14.40;99.90;;;;;;5029372;28;20021;-79
2023/07/24 00:21:51;;;;;;;6.85;3.10;;;14.30;99.90;;;;;;5027688;28;20064;-79
2023/07/24 00:24:17;;;;;;;7.68;3.00;;;14.30;99.90;;;;;;5025867;28;20030;-79
2023/07/24 00:26:43;;;;;;;6.53;3.00;;;14.30;99.90;;;;;;5025248;28;20029;-78
2023/07/24 00:29:08;;;;;;;6.07;2.83;;;14.20;99.90;;;;;;5010552;28;20029;-79
2023/07/24 00:31:34;;;;;;;7.18;3.17;;;14.10;99.90;;;;;;5010223;28;20018;-78
2023/07/24 00:34:00;;;;;;;7.13;3.17;;;14.10;99.90;;;;;;5024328;28;20029;-79
2023/07/24 00:36:26;;;;;;;8.93;2.83;;;14.00;99.90;;;;;;5010529;28;20663;-78
2023/07/24 00:38:52;;;;;;;8.93;2.80;;;14.00;99.90;;;;;;5010906;28;20022;-78
2023/07/24 00:41:17;;;;;;;7.82;2.85;;;14.00;99.90;;;;;;5025507;28;20030;-79
2023/07/24 00:43:43;;;;;;;5.50;2.72;;;13.90;99.90;;;;;;5010516;28;20504;-79
2023/07/24 00:46:10;;;;;;;9.80;3.30;;;13.90;99.90;;;;;;5018735;28;20127;-79
2023/07/24 00:48:37;;;;;;;5.45;2.85;;;13.80;99.90;;;;;;5010347;28;20033;-79
2023/07/24 00:51:03;;;;;;;10.40;3.10;;;13.80;99.90;;;;;;5010423;28;20164;-79
2023/07/24 00:53:29;;;;;;;8.65;3.10;;;13.80;99.90;;;;;;5010608;28;20533;-78
2023/07/24 00:55:54;;;;;;;8.35;3.08;;;13.80;99.90;;;;;;5009826;28;20025;-78
2023/07/24 00:58:22;;;;;;;11.18;3.30;;;13.80;99.90;;;;;;5009103;28;20053;-79
2023/07/24 01:00:47;;;;;;;10.02;2.75;;;13.80;99.90;;;;;;5016750;28;20026;-79
2023/07/24 01:03:13;;;;;;;7.85;3.00;;;13.70;99.90;;;;;;5013567;28;20025;-78
2023/07/24 01:05:40;;;;;;;6.43;3.03;;;13.70;99.90;;;;;;5013840;28;20104;-78
2023/07/24 01:08:07;;;;;;;7.60;3.75;;;13.60;99.90;;;;;;5014031;28;20084;-79
2023/07/24 01:10:32;;;;;;;14.30;3.28;;;13.50;99.90;;;;;;5020974;28;20018;-79
2023/07/24 01:13:05;;;;;;;7.60;2.88;;;13.50;99.90;;;;;;5013327;28;20033;-78
2023/07/24 01:16:16;;;;;;;16.40;3.47;;;13.50;99.90;;;;;;5047422;22;20069;-80
2023/07/24 01:18:44;;;;;;;5.57;3.10;;;13.40;99.90;;;;;;5011110;28;20014;-81
2023/07/24 01:21:13;;;;;;;10.00;3.40;;;13.40;99.90;;;;;;5014452;28;20022;-80
2023/07/24 01:23:54;;;;;;;9.65;3.65;;;13.40;99.90;;;;;;5013814;28;20026;-80
2023/07/24 01:26:20;;;;;;;8.03;3.53;;;13.30;99.90;;;;;;5007217;28;20026;-80
2023/07/24 01:28:46;;;;;;;9.85;3.55;;;13.30;99.90;;;;;;5013075;28;20054;-80
2023/07/24 01:31:12;;;;;;;10.27;3.80;;;13.30;99.90;;;;;;5012989;28;20018;-81
2023/07/24 01:33:38;;;;;;;8.40;3.60;;;13.30;99.90;;;;;;5013654;28;20025;-80
2023/07/24 01:36:05;;;;;;;10.20;3.75;;;13.40;99.90;;;;;;5013162;28;20073;-80
2023/07/24 01:38:34;;;;;;;10.32;3.83;;;13.40;99.90;;;;;;5013234;28;20030;-81
2023/07/24 01:41:00;;;;;;;12.32;3.85;;;13.40;99.90;;;;;;5013327;28;20617;-81
2023/07/24 01:43:29;;;;;;;10.32;3.85;;;13.40;99.90;;;;;;5013221;28;20038;-81
2023/07/24 01:45:55;;;;;;;9.77;3.45;;;13.40;99.90;;;;;;4995225;28;20026;-80
2023/07/24 01:48:21;;;;;;;8.18;3.75;;;13.40;99.90;;;;;;5013282;28;20367;-81
2023/07/24 01:50:46;;;;;;;10.00;3.63;;;13.40;99.90;;;;;;5012937;28;20417;-80
2023/07/24 01:53:12;;;;;;;5.68;3.28;;;13.40;99.90;;;;;;5013040;28;20430;-81
2023/07/24 01:55:38;;;;;;;10.18;3.95;;;13.30;99.90;;;;;;5012837;28;20026;-80
2023/07/24 01:58:04;;;;;;;7.90;3.38;;;13.30;99.90;;;;;;4997249;28;20022;-81
2023/07/24 02:00:29;;;;;;;6.75;2.92;;;13.30;99.90;;;;;;5012293;28;20093;-81
2023/07/24 02:02:55;;;;;;;9.63;3.33;;;13.30;99.90;;;;;;5012799;28;20018;-81
2023/07/24 02:05:21;;;;;;;9.45;3.90;;;13.30;99.90;;;;;;5012373;28;20026;-80
2023/07/24 02:07:47;;;;;;;9.18;4.07;;;13.40;99.90;;;;;;5011353;28;20018;-81
2023/07/24 02:10:13;;;;;;;6.30;3.38;;;13.50;99.90;;;;;;5012420;28;20083;-81
2023/07/24 02:12:38;;;;;;;8.35;3.55;;;13.50;99.90;;;;;;5012552;28;20105;-81
2023/07/24 02:15:04;;;;;;;6.80;3.03;;;13.60;99.90;;;;;;5037288;23;20034;-79
2023/07/24 02:17:30;;;;;;;7.47;3.80;;;13.60;99.90;;;;;;5013293;28;20026;-79
2023/07/24 02:19:56;;;;;;;5.65;3.38;;;13.60;99.90;;;;;;5021120;28;20073;-79
2023/07/24 02:22:21;;;;;;;9.50;3.25;;;13.60;99.90;;;;;;5011481;28;20013;-79
2023/07/24 02:24:47;;;;;;;9.02;3.30;;;13.70;99.90;;;;;;5012731;28;20099;-79
2023/07/24 02:27:16;;;;;;;5.45;2.80;;;13.70;99.90;;;;;;5012642;28;20536;-79
2023/07/24 02:29:42;;;;;;;12.45;3.85;;;13.70;99.90;;;;;;4995222;28;20026;-79
2023/07/24 02:32:08;;;;;;;8.13;3.65;;;13.70;99.90;;;;;;5012541;28;20044;-79
2023/07/24 02:34:33;;;;;;;9.13;3.75;;;13.70;99.90;;;;;;5012554;28;20471;-79
2023/07/24 02:36:59;;;;;;;7.75;3.60;;;13.70;99.90;;;;;;5011544;28;20025;-79
2023/07/24 02:39:24;;;;;;;15.48;3.63;;;13.60;99.90;;;;;;5013147;28;20457;-79
2023/07/24 02:41:50;;;;;;;7.10;3.60;;;13.70;99.90;;;;;;5012786;28;20020;-79
2023/07/24 02:44:16;;;;;;;8.80;4.75;;;13.70;99.90;;;;;;5012566;28;20422;-80
2023/07/24 02:46:41;;;;;;;7.15;3.10;;;13.60;99.90;;;;;;5014177;28;20036;-79
2023/07/24 02:49:07;;;;;;;11.95;5.03;;;13.50;99.90;;;;;;5012070;28;20065;-79
2023/07/24 02:51:33;;;;;;;9.75;4.32;;;13.40;99.90;;;;;;5012124;28;20052;-79
2023/07/24 02:53:58;;;;;;;9.13;3.88;;;13.40;99.90;;;;;;5010871;28;20072;-79
2023/07/24 02:56:24;;;;;;;8.88;3.60;;;13.30;99.90;;;;;;4999075;28;20018;-79
2023/07/24 02:58:50;;;;;;;6.50;2.92;;;13.20;99.90;;;;;;5012415;28;20072;-79
2023/07/24 03:01:15;;;;;;;4.90;3.33;;;13.30;99.90;;;;;;5011804;28;20026;-79
2023/07/24 03:03:41;;;;;;;7.55;3.72;;;13.20;99.90;;;;;;5011066;28;20034;-79
2023/07/24 03:06:07;;;;;;;4.00;2.80;;;13.20;99.90;;;;;;5012278;28;20025;-80
2023/07/24 03:08:33;;;;;;;6.10;2.80;;;13.20;99.90;;;;;;5012370;28;20025;-79
2023/07/24 03:11:00;;;;;;;8.23;3.40;;;13.20;99.90;;;;;;5012150;28;20543;-79
2023/07/24 03:13:25;;;;;;;5.65;3.72;;;13.20;99.90;;;;;;5012052;28;20668;-79
2023/07/24 03:15:52;;;;;;;4.07;2.60;;;13.10;99.90;;;;;;5045768;23;20051;-80
2023/07/24 03:18:18;;;;;;;6.18;2.97;;;13.10;99.90;;;;;;5027089;28;20023;-80
2023/07/24 03:20:44;;;;;;;4.85;3.00;;;13.10;99.90;;;;;;5013584;28;20020;-80
2023/07/24 03:23:09;;;;;;;4.32;2.90;;;13.00;99.90;;;;;;5030688;28;20029;-81
2023/07/24 03:25:35;;;;;;;6.20;3.05;;;13.00;99.90;;;;;;5031116;28;20033;-81
2023/07/24 03:28:01;;;;;;;7.05;3.70;;;13.00;99.90;;;;;;5030938;28;20504;-81
2023/07/24 03:30:27;;;;;;;37.63;5.97;;;13.00;99.90;;;;;;5034580;28;20083;-81
2023/07/24 03:32:53;;;;;;;6.32;3.28;;;13.00;99.90;;;;;;5031684;28;20017;-81
2023/07/24 03:35:18;;;;;;;8.07;3.80;;;13.00;99.90;;;;;;5031407;28;20017;-80
2023/07/24 03:37:44;;;;;;;10.48;3.20;;;13.20;99.90;;;;;;5030974;28;20544;-81
2023/07/24 03:40:10;;;;;;;4.15;2.85;;;13.20;99.90;;;;;;5031495;28;20025;-80
2023/07/24 03:42:35;;;;;;;6.80;3.03;;;13.20;99.90;;;;;;5038166;28;20394;-81
2023/07/24 03:45:01;;;;;;;8.55;3.10;;;13.20;99.90;;;;;;5031201;28;20038;-81
2023/07/24 03:47:27;;;;;;;12.48;3.00;;;13.30;99.90;;;;;;5034049;28;20039;-81
2023/07/24 03:49:52;;;;;;;7.38;2.90;;;13.30;99.90;;;;;;5031552;28;20369;-80
2023/07/24 03:52:18;;;;;;;28.95;4.53;;;13.30;99.90;;;;;;5031404;28;20097;-80
2023/07/24 03:54:44;;;;;;;5.53;2.85;;;13.40;99.90;;;;;;5031006;28;20025;-80
2023/07/24 03:57:10;;;;;;;6.07;2.28;;;13.40;99.90;;;;;;5024254;28;20032;-81
2023/07/24 03:59:36;;;;;;;15.27;3.13;;;13.40;99.90;;;;;;5031420;28;20029;-81
2023/07/24 04:02:01;;;;;;;10.30;2.53;;;13.40;99.90;;;;;;5030603;28;20025;-81
2023/07/24 04:04:27;;;;;;;7.63;3.00;;;13.30;99.90;;;;;;5013592;28;20029;-81
2023/07/24 04:06:53;;;;;;;5.03;2.55;;;13.30;99.90;;;;;;5031600;28;20088;-81
2023/07/24 04:09:18;;;;;;;9.27;2.78;;;13.30;99.90;;;;;;5030557;28;20482;-80
2023/07/24 04:11:44;;;;;;;4.97;2.50;;;13.30;99.90;;;;;;5013428;28;20470;-80
2023/07/24 04:14:10;;;;;;;45.25;6.43;;;13.30;99.90;;;;;;5052718;23;20047;-79
2023/07/24 04:16:36;;;;;;;12.13;3.00;;;13.30;99.90;;;;;;5009514;28;20041;-79
2023/07/24 04:19:02;;;;;;;6.35;2.40;;;13.30;99.90;;;;;;5030645;28;20061;-80
2023/07/24 04:21:27;;;;;;;5.53;2.60;;;13.30;99.90;;;;;;5011859;28;20088;-79
2023/07/24 04:23:53;;;;;;;9.57;3.40;;;13.30;99.90;;;;;;5030972;28;20038;-79
2023/07/24 04:26:19;;;;;;;13.90;3.33;;;13.30;99.90;;;;;;5022155;28;20396;-79
2023/07/24 04:28:44;;;;;;;10.88;2.67;;;13.40;99.90;;;;;;5031088;28;20025;-79
2023/07/24 04:31:10;;;;;;;12.02;2.92;;;13.40;99.90;;;;;;5030957;28;20110;-79
2023/07/24 04:33:36;;;;;;;14.00;2.97;;;13.40;99.90;;;;;;5030970;28;20104;-79
2023/07/24 04:36:01;;;;;;;6.38;3.17;;;13.40;99.90;;;;;;5032549;28;20385;-79
2023/07/24 04:38:27;;;;;;;6.53;2.08;;;13.50;99.90;;;;;;5034892;28;20462;-79
2023/07/24 04:40:53;;;;;;;5.82;2.33;;;13.50;99.90;;;;;;5034915;28;20071;-79
2023/07/24 04:43:18;;;;;;;9.70;2.63;;;13.50;99.90;;;;;;5032744;28;20045;-80
2023/07/24 04:45:44;;;;;;;5.50;2.63;;;13.50;99.90;;;;;;5034562;28;20029;-79
2023/07/24 04:48:10;;;;;;;6.55;2.65;;;13.40;99.90;;;;;;5034563;28;20079;-80
2023/07/24 04:50:35;;;;;;;7.95;2.35;;;13.40;99.90;;;;;;5034693;28;20026;-80
2023/07/24 04:53:01;;;;;;;5.65;2.53;;;13.50;99.90;;;;;;5029350;28;20056;-78
2023/07/24 04:55:27;;;;;;;8.30;3.03;;;13.60;99.90;;;;;;5034290;28;20021;-80
2023/07/24 04:57:52;;;;;;;7.57;2.42;;;13.70;99.90;;;;;;5034148;28;20359;-79
2023/07/24 05:00:18;;;;;;;10.82;3.47;;;13.80;99.90;;;;;;5038897;28;20029;-79
2023/07/24 05:02:44;;;;;;;4.65;2.10;;;13.90;99.90;;;;;;5034529;28;20466;-79
2023/07/24 05:05:09;;;;;;;4.72;2.33;;;14.00;99.90;;;;;;5033938;28;20389;-79
2023/07/24 05:07:35;;;;;;;5.20;2.13;;;14.10;99.90;;;;;;5033897;28;20485;-79
2023/07/24 05:10:01;;;;;;;5.05;2.72;;;14.20;99.90;;;;;;5034378;28;20028;-79
2023/07/24 05:12:26;;;;;;;5.32;2.47;;;14.40;99.90;;;;;;5034154;28;20032;-78
2023/07/24 05:14:52;;;;;;;9.63;2.70;;;14.50;99.90;;;;;;5056024;23;20048;-80
2023/07/24 05:17:18;;;;;;;5.13;2.33;;;14.60;99.90;;;;;;5039847;28;20036;-80
2023/07/24 05:19:43;;;;;;;8.88;2.95;;;14.70;99.90;;;;;;5033371;28;20025;-81
2023/07/24 05:22:10;;;;;;;5.43;2.55;;;14.80;99.90;;;;;;5032785;28;20036;-81
2023/07/24 05:24:36;;;;;;;6.13;2.60;;;14.90;99.90;;;;;;5033522;28;20026;-81
2023/07/24 05:27:03;;;;;;;8.20;4.38;;;15.00;99.90;;;;;;5029978;28;20021;-81
2023/07/24 05:29:29;;;;;;;6.82;2.83;;;15.10;99.90;;;;;;5031583;28;20543;-81
2023/07/24 05:31:54;;;;;;;5.75;2.75;;;15.10;99.90;;;;;;5033464;28;20092;-81
2023/07/24 05:34:20;;;;;;;8.10;2.72;;;15.20;99.90;;;;;;5033168;28;20025;-81
2023/07/24 05:36:46;;;;;;;7.03;3.55;;;15.30;99.90;;;;;;5033034;28;20029;-81
2023/07/24 05:39:12;;;;;;;9.10;2.53;;;15.40;99.90;;;;;;5033261;28;20432;-81
2023/07/24 05:41:37;;;;;;;8.65;3.00;;;15.40;99.90;;;;;;5032723;28;20591;-81
2023/07/24 05:44:03;;;;;;;5.38;2.20;;;15.50;99.90;;;;;;5032625;28;20030;-81
2023/07/24 05:46:29;;;;;;;6.68;2.63;;;15.60;99.90;;;;;;5031887;28;20022;-81
2023/07/24 05:48:54;;;;;;;6.15;2.97;;;15.70;99.90;;;;;;5032841;28;20053;-81
2023/07/24 05:51:20;;;;;;;10.38;2.40;;;15.70;99.90;;;;;;5032815;28;20107;-81
2023/07/24 05:53:46;;;;;;;5.32;2.63;;;15.90;99.90;;;;;;5033376;28;20029;-81
2023/07/24 05:56:12;;;;;;;5.20;2.22;;;16.00;99.90;;;;;;5030898;28;20534;-81
2023/07/24 05:58:37;;;;;;;3.72;2.38;;;16.10;99.90;;;;;;5032639;28;20029;-81
2023/07/24 06:01:03;;;;;;;9.80;3.35;;;16.10;99.90;;;;;;5038264;28;20029;-81
2023/07/24 06:03:28;;;;;;;7.10;2.55;;;16.20;99.90;;;;;;5032464;28;20488;-81
2023/07/24 06:05:55;;;;;;;6.45;2.67;;;16.30;99.90;;;;;;5032150;28;20032;-81
2023/07/24 06:08:21;;;;;;;10.55;2.85;;;16.30;99.90;;;;;;5032671;28;20116;-81
2023/07/24 06:10:48;;;;;;;8.60;2.60;;;16.40;99.90;;;;;;5032664;28;20025;-80
2023/07/24 06:13:15;;;;;;;7.05;2.30;;;16.40;99.90;;;;;;5032313;28;20025;-80
2023/07/24 06:15:41;;;;;;;7.47;2.83;;;16.50;99.90;;;;;;5062731;22;20568;-79
2023/07/24 06:18:06;;;;;;;4.20;2.42;;;16.50;99.90;;;;;;5047128;28;20113;-79
2023/07/24 06:20:32;;;;;;;10.32;2.65;;;16.60;99.90;;;;;;5032192;28;20101;-80
2023/07/24 06:22:58;;;;;;;7.05;2.47;;;16.70;99.90;;;;;;5032365;28;20536;-79
2023/07/24 06:25:23;;;;;;;6.63;2.38;;;16.70;99.90;;;;;;5032276;28;20444;-79
2023/07/24 06:27:49;;;;;;;8.70;3.10;;;16.70;99.90;;;;;;5032298;28;20144;-80
2023/07/24 06:30:14;;;;;;;4.35;2.40;;;16.70;99.90;;;;;;5030287;28;20079;-79
2023/07/24 06:32:40;;;;;;;13.00;2.78;;;16.80;99.90;;;;;;5032227;28;20509;-79
2023/07/24 06:35:06;;;;;;;8.63;2.67;;;16.80;99.90;;;;;;5032075;28;20029;-79
2023/07/24 06:37:32;;;;;;;6.55;2.33;;;16.80;99.90;;;;;;5037283;28;20507;-79
2023/07/24 06:39:58;;;;;;;7.90;2.25;;;16.90;99.90;;;;;;5031819;28;20038;-80
2023/07/24 06:42:23;;;;;;;11.18;2.55;;;16.90;99.90;;;;;;5029964;28;20032;-79
2023/07/24 06:44:49;;;;;;;7.40;2.42;;;17.00;99.90;;;;;;5031506;28;20068;-80
2023/07/24 06:47:14;;;;;;;5.35;2.15;;;17.10;99.90;;;;;;5038804;28;20485;-80
2023/07/24 06:49:40;;;;;;;11.82;2.65;;;17.10;99.90;;;;;;5031763;28;21221;-79
2023/07/24 06:52:06;;;;;;;4.68;2.20;;;17.20;99.90;;;;;;5031885;28;20073;-80
2023/07/24 06:54:32;;;;;;;5.90;2.40;;;17.30;99.90;;;;;;5031665;28;20052;-80
2023/07/24 06:56:57;;;;;;;4.63;2.20;;;17.30;99.90;;;;;;5031274;28;20037;-80
2023/07/24 06:59:23;;;;;;;3.33;2.45;;;17.30;99.90;;;;;;5031817;28;20038;-80
2023/07/24 07:01:49;;;;;;;6.63;3.05;;;17.30;99.90;;;;;;5023958;28;20021;-80
2023/07/24 07:04:15;;;;;;;7.57;2.60;;;17.20;99.90;;;;;;5031295;28;20091;-80
2023/07/24 07:06:41;;;;;;;4.40;2.08;;;17.10;99.90;;;;;;5031276;28;20122;-80
2023/07/24 07:09:07;;;;;;;5.50;2.10;;;17.20;99.90;;;;;;5031392;28;20477;-81
2023/07/24 07:11:32;;;;;;;8.45;1.80;;;17.10;99.50;;;;;;5030819;28;20068;-79
2023/07/24 07:13:58;;;;;;;4.05;1.73;;;17.20;99.60;;;;;;5031036;28;20042;-80
2023/07/24 07:16:24;;;;;;;2.83;1.77;;;17.20;99.70;;;;;;5044163;23;20037;-81
2023/07/24 07:18:49;;;;;;;2.55;1.98;;;17.30;99.40;;;;;;5031175;28;20059;-82
2023/07/24 07:21:15;;;;;;;5.68;2.22;;;17.40;99.10;;;;;;5031117;28;20022;-82
2023/07/24 07:23:41;;;;;;;7.60;2.05;;;17.70;97.90;;;;;;5031398;28;20053;-82
2023/07/24 07:26:06;;;;;;;6.97;1.88;;;17.90;98.60;;;;;;5030490;28;20022;-84
2023/07/24 07:28:32;;;;;;;4.93;1.65;;;18.20;97.90;;;;;;5030078;28;20508;-80
2023/07/24 07:30:58;;;;;;;2.03;1.80;;;18.40;97.90;;;;;;5030734;28;20054;-81
2023/07/24 07:33:24;;;;;;;4.32;2.10;;;18.70;97.20;;;;;;5030916;28;20021;-80
2023/07/24 07:35:50;;;;;;;4.25;1.85;;;19.00;97.20;;;;;;5030505;28;20045;-82
2023/07/24 07:38:16;;;;;;;5.50;2.55;;;19.40;95.60;;;;;;5028808;28;20083;-80
2023/07/24 07:40:41;;;;;;;5.85;1.98;;;19.60;94.10;;;;;;5030760;28;20108;-80
2023/07/24 07:43:07;;;;;;;4.90;2.03;;;19.80;93.80;;;;;;5031191;28;20029;-80
2023/07/24 07:45:33;;;;;;;3.85;1.90;;;19.90;94.00;;;;;;5030279;28;20116;-80
2023/07/24 07:47:58;;;;;;;4.35;2.33;;;19.80;93.50;;;;;;5027736;28;20026;-78
2023/07/24 07:50:24;;;;;;;5.38;2.28;;;19.80;93.50;;;;;;5030537;28;20172;-82
2023/07/24 07:52:51;;;;;;;6.47;2.55;;;19.70;92.90;;;;;;5031066;28;20017;-83
2023/07/24 07:55:20;;;;;;;7.32;2.25;;;19.60;93.60;;;;;;5030769;28;20074;-82
2023/07/24 07:57:46;;;;;;;3.35;2.40;;;19.60;93.30;;;;;;5033689;28;20017;-81
2023/07/24 08:00:12;;;;;;;4.50;2.20;;;19.60;93.30;;;;;;5030663;28;20041;-83
2023/07/24 08:02:40;;;;;;;3.40;1.90;;;19.50;93.60;;;;;;5030468;28;20065;-86
2023/07/24 08:05:10;;;;;;;5.85;1.48;;;19.50;93.00;;;;;;5030187;28;20160;-84
2023/07/24 08:07:36;;;;;;;7.30;1.90;;;19.40;93.20;;;;;;5030444;28;20021;-84
2023/07/24 08:10:03;;;;;;;4.85;2.00;;;19.30;93.30;;;;;;5030115;28;20040;-81
2023/07/24 08:12:28;;;;;;;3.58;1.67;;;19.30;94.10;;;;;;5029938;28;20049;-80
2023/07/24 08:14:55;;;;;;;3.78;1.90;;;19.20;93.70;;;;;;5055737;23;20373;-81
2023/07/24 08:17:20;;;;;;;3.33;1.52;;;19.10;93.60;;;;;;5050312;28;20500;-80
2023/07/24 08:19:46;;;;;;;5.50;1.77;;;19.00;94.00;;;;;;5050113;28;20020;-81
2023/07/24 08:22:12;;;;;;;3.47;1.50;;;19.00;94.20;;;;;;5049729;28;20029;-84
2023/07/24 08:24:37;;;;;;;3.08;2.20;;;19.10;94.70;;;;;;5050288;28;20033;-82
2023/07/24 08:27:03;;;;;;;4.53;2.15;;;19.20;94.20;;;;;;5050440;28;20350;-82
2023/07/24 08:29:29;;;;;;;5.20;2.08;;;19.20;94.00;;;;;;5050026;28;20431;-83
2023/07/24 08:31:54;;;;;;;7.75;2.65;;;19.40;93.30;;;;;;5048683;28;20017;-81
2023/07/24 08:34:20;;;;;;;6.20;2.15;;;19.50;92.70;;;;;;5050218;28;20017;-81
2023/07/24 08:36:45;;;;;;;5.22;2.20;;;19.60;92.90;;;;;;5049905;28;20009;-81
2023/07/24 08:39:11;;;;;;;5.63;2.63;;;19.80;93.00;;;;;;5048702;28;20044;-81
2023/07/24 08:41:37;;;;;;;7.28;2.75;;;19.90;92.80;;;;;;5049929;28;20009;-82
2023/07/24 08:44:07;;;;;;;4.35;2.50;;;20.10;93.00;;;;;;5050277;28;20078;-83
2023/07/24 08:46:41;;;;;;;6.47;2.35;;;20.40;92.20;;;;;;5049772;28;20057;-85
2023/07/24 08:49:13;;;;;;;7.20;2.30;;;20.70;91.30;;;;;;5043646;28;20025;-81
2023/07/24 08:51:43;;;;;;;4.55;2.28;;;21.00;90.10;;;;;;5049569;28;20017;-82
2023/07/24 08:54:11;;;;;;;3.88;2.30;;;21.30;88.70;;;;;;5050025;28;20021;-81
2023/07/24 08:56:38;;;;;;;4.07;2.72;;;21.40;87.40;;;;;;5050224;28;20024;-81
2023/07/24 08:59:03;;;;;;;7.35;2.63;;;21.50;85.70;;;;;;5040112;28;20381;-81
2023/07/24 09:01:29;;;;;;;3.08;1.85;;;21.80;86.10;;;;;;5052668;28;20029;-83
2023/07/24 09:03:56;;;;;;;5.85;2.33;;;22.50;85.10;;;;;;5049543;28;20119;-82
2023/07/24 09:06:22;;;;;;;3.35;1.65;;;23.70;80.10;;;;;;5049887;28;20016;-81
2023/07/24 09:08:48;;;;;;;3.30;1.65;;;24.80;75.10;;;;;;5049884;28;20023;-81
2023/07/24 09:11:14;;;;;;;4.47;1.83;;;25.30;70.80;;;;;;5049049;28;20029;-81
2023/07/24 09:13:42;;;;;;;2.03;1.23;;;25.50;70.90;;;;;;5048355;28;20021;-81
2023/07/24 09:16:08;;;;;;;3.75;1.05;;;25.40;70.30;;;;;;5064930;22;20079;-81
2023/07/24 09:18:43;;;;;;;1.33;0.90;;;24.60;67.40;;;;;;5033835;28;20034;-80
2023/07/24 09:21:12;;;;;;;3.60;1.10;;;24.00;68.10;;;;;;5032601;28;20017;-80
2023/07/24 09:23:40;;;;;;;1.20;0.98;;;23.30;70.60;;;;;;5026859;28;20022;-81
2023/07/24 09:26:07;;;;;;;2.08;1.20;;;22.70;73.90;;;;;;5034227;28;20024;-81
2023/07/24 09:28:34;;;;;;;1.10;1.00;;;22.10;77.90;;;;;;5032976;28;20060;-81
2023/07/24 09:31:03;;;;;;;2.80;1.40;;;21.80;78.00;;;;;;5033258;28;20025;-81
2023/07/24 09:33:40;;;;;;;2.05;1.20;;;21.40;81.00;;;;;;5033329;28;20049;-81
2023/07/24 09:36:08;;;;;;;7.03;1.20;;;21.00;83.60;;;;;;5031490;28;20026;-81
2023/07/24 09:38:34;;;;;;;2.72;1.40;;;20.90;84.90;;;;;;5033334;28;20028;-81
2023/07/24 09:41:02;;;;;;;3.17;1.80;;;20.70;87.70;;;;;;5033580;28;20470;-80
2023/07/24 09:43:29;;;;;;;2.72;1.50;;;20.40;90.80;;;;;;5048399;28;20017;-80
2023/07/24 09:45:56;;;;;;;1.98;1.30;;;20.20;92.30;;;;;;5036068;28;20552;-80
2023/07/24 09:48:26;;;;;;;2.72;1.90;;;19.90;92.80;;;;;;5038260;28;20052;-83
2023/07/24 09:50:56;;;;;;;6.55;2.22;;;19.60;93.50;;;;;;5033350;28;20029;-80
2023/07/24 09:53:48;;;;;;;4.50;2.70;;;19.30;94.00;;;;;;5033099;28;20045;-80
2023/07/24 09:56:14;;;;;;;;;;;19.10;95.90;;;;;;5033028;28;20472;-81
2023/07/24 09:58:43;;;;;;;2.60;1.90;;;19.10;95.30;;;;;;5032601;28;19913;-81
2023/07/24 10:01:09;;;;;;;2.88;1.75;;;19.20;95.10;;;;;;5033063;28;20444;-81
2023/07/24 10:03:40;;;;;;;2.03;1.42;;;19.40;97.10;;;;;;5032744;28;20013;-81
2023/07/24 10:06:10;;;;;;;3.15;1.60;;;19.50;95.20;;;;;;5031122;28;20678;-80
2023/07/24 10:08:36;;;;;;;2.75;1.80;;;19.70;94.90;;;;;;5032657;28;20029;-80
2023/07/24 10:11:02;;;;;;;3.13;1.80;;;20.40;97.70;;;;;;5032747;28;20033;-81
2023/07/24 10:13:29;;;;;;;2.17;1.80;;;21.40;95.50;;;;;;5032032;28;20448;-81
2023/07/24 10:15:56;;;;;;;3.25;1.77;;;22.60;91.40;;;;;;5065295;22;20041;-80
2023/07/24 10:18:29;;;;;;;1.80;1.60;;;23.40;87.90;;;;;;5056334;28;20021;-81
2023/07/24 10:21:05;;;;;;;1.67;1.10;;;24.30;86.70;;;;;;5051356;28;20040;-81
2023/07/24 10:23:33;;;;;;;2.33;1.30;;;25.60;75.70;;;;;;5050942;28;20017;-80
2023/07/24 10:26:06;;;;;;;2.08;1.20;;;26.10;71.70;;;;;;5019908;28;20121;-80
2023/07/24 10:28:34;;;;;;;1.83;1.05;;;26.20;65.50;;;;;;5031768;28;20021;-81
2023/07/24 10:31:01;;;;;;;1.38;1.00;;;26.20;67.70;;;;;;5014705;28;20462;-81
2023/07/24 10:33:30;;;;;;;1.50;1.08;;;26.30;63.00;;;;;;5031666;28;20041;-81
2023/07/24 10:36:10;;;;;;;1.33;1.20;;;27.20;65.40;;;;;;5032100;28;20397;-81
2023/07/24 10:38:46;;;;;;;1.85;0.80;;;28.10;60.80;;;;;;5032237;28;20025;-81
2023/07/24 10:41:13;;;;;;;4.28;1.02;;;28.10;57.40;;;;;;5015155;28;20040;-81
2023/07/24 10:43:49;;;;;;;3.00;0.82;;;27.90;56.10;;;;;;5031815;28;20104;-81
2023/07/24 10:46:19;;;;;;;1.45;0.90;;;27.90;59.50;;;;;;5031059;28;20123;-81
2023/07/24 10:48:50;;;;;;;2.35;0.90;;;27.70;57.60;;;;;;5031507;28;20053;-82
2023/07/24 10:51:16;;;;;;;2.38;0.90;;;27.30;57.70;;;;;;5031667;28;20489;-81
2023/07/24 10:53:47;;;;;;;1.60;0.82;;;27.20;61.30;;;;;;5031702;28;20010;-80
2023/07/24 10:56:14;;;;;;;1.45;0.68;;;26.90;59.30;;;;;;5012939;28;20115;-81
2023/07/24 10:58:39;;;;;;;1.58;1.10;;;26.30;59.50;;;;;;5036854;28;20013;-83
2023/07/24 11:01:06;;;;;;;2.05;0.88;;;26.40;60.50;;;;;;5034207;28;20087;-84
2023/07/24 11:03:32;;;;;;;1.95;1.20;;;26.60;63.80;;;;;;5036232;28;20009;-84
2023/07/24 11:05:59;;;;;;;1.40;0.80;;;26.50;63.00;;;;;;5031519;28;20044;-80
2023/07/24 11:08:25;;;;;;;4.72;1.20;;;26.90;61.10;;;;;;5031864;28;20033;-83
2023/07/24 11:10:59;;;;;;;3.83;0.95;;;26.70;62.70;;;;;;5031303;28;20021;-81
2023/07/24 11:13:26;;;;;;;1.08;0.70;;;26.20;59.00;;;;;;5030947;28;20889;-82
2023/07/24 11:15:52;;;;;;;2.55;1.33;;;26.00;60.00;;;;;;5041187;23;20131;-82
2023/07/24 11:18:26;;;;;;;1.38;0.82;;;26.90;59.60;;;;;;5046556;28;20055;-81
2023/07/24 11:20:54;;;;;;;3.00;1.20;;;27.90;56.80;;;;;;5038488;28;20021;-82
2023/07/24 11:23:20;;;;;;;1.90;1.00;;;30.00;53.40;;;;;;5038709;28;20024;-81
2023/07/24 11:25:46;;;;;;;1.15;0.95;;;30.90;48.20;;;;;;5033221;28;20060;-80
2023/07/24 11:28:14;;;;;;;2.58;0.82;;;30.10;49.60;;;;;;5029666;28;20021;-82
2023/07/24 11:30:41;;;;;;;5.07;0.90;;;29.00;49.00;;;;;;5027599;28;20021;-81
2023/07/24 11:33:08;;;;;;;1.95;1.10;;;28.00;52.70;;;;;;5014313;28;20027;-81
2023/07/24 11:35:35;;;;;;;3.35;1.10;;;26.70;59.20;;;;;;5027094;28;20044;-82
2023/07/24 11:38:01;;;;;;;1.27;0.70;;;25.40;70.50;;;;;;5026721;28;20051;-79
2023/07/24 11:40:35;;;;;;;1.05;0.95;;;24.40;72.90;;;;;;5006871;28;20363;-79
2023/07/24 11:43:03;;;;;;;1.40;1.13;;;23.90;80.30;;;;;;5029936;28;20373;-80
2023/07/24 11:45:29;;;;;;;3.20;1.42;;;23.90;80.00;;;;;;5023333;28;20115;-82
2023/07/24 11:47:56;;;;;;;2.88;1.33;;;23.90;81.00;;;;;;5025341;28;20014;-80
2023/07/24 11:50:23;;;;;;;1.83;0.93;;;24.30;76.50;;;;;;5030256;28;20113;-81
2023/07/24 11:52:50;;;;;;;2.63;1.00;;;25.80;81.80;;;;;;5023309;28;20033;-81
2023/07/24 11:55:18;;;;;;;3.13;0.85;;;26.40;69.60;;;;;;5023548;28;20553;-80
2023/07/24 11:57:54;;;;;;;1.38;1.15;;;26.20;65.20;;;;;;5020741;28;20067;-81
2023/07/24 12:00:21;;;;;;;1.80;1.15;;;25.70;66.30;;;;;;5013225;28;20053;-81
2023/07/24 12:02:47;;;;;;;1.50;1.17;;;24.90;66.80;;;;;;5032385;28;20442;-80
2023/07/24 12:05:13;;;;;;;1.88;1.00;;;24.10;70.80;;;;;;5022321;28;20516;-82
2023/07/24 12:07:38;;;;;;;1.77;1.20;;;23.10;72.60;;;;;;5024066;28;20048;-83
2023/07/24 12:10:07;;;;;;;1.35;1.00;;;22.60;75.10;;;;;;5022857;28;20087;-81
2023/07/24 12:12:48;;;;;;;1.27;1.17;;;22.10;77.30;;;;;;5015060;28;20050;-83
2023/07/24 12:15:14;;;;;;;1.88;1.50;;;21.50;80.00;;;;;;5047525;23;20054;-80
2023/07/24 12:17:41;;;;;;;6.13;4.63;;;21.20;87.20;;;;;;5017547;28;20034;-80
2023/07/24 12:20:09;;;;;;;4.50;1.83;;;20.70;89.30;;;;;;5006160;28;20112;-79
2023/07/24 13:23:38;;;;;;;3.92;1.38;;;20.70;99.00;;;;;;5108893;27;20380;-79
2023/07/24 13:26:03;;;;;;;1.73;1.50;;;22.80;93.40;;;;;;5103900;28;20089;-81
2023/07/24 13:28:29;;;;;;;1.67;1.17;;;24.30;87.50;;;;;;5088610;28;20024;-80
2023/07/24 13:30:55;;;;;;;1.45;1.02;;;25.60;80.10;;;;;;5088434;28;20091;-80
2023/07/24 13:33:23;;;;;;;2.55;1.00;;;25.80;71.90;;;;;;5088942;28;20020;-81
2023/07/24 13:35:48;;;;;;;1.17;1.08;;;25.20;74.50;;;;;;5088806;28;20024;-81
2023/07/24 13:38:16;;;;;;;1.58;1.08;;;25.30;75.60;;;;;;5088733;28;20043;-81
2023/07/24 13:40:42;;;;;;;1.08;0.95;;;25.30;72.90;;;;;;5088525;28;20492;-81
2023/07/24 13:43:08;;;;;;;1.10;1.00;;;25.50;73.30;;;;;;5094054;28;20077;-81